Catlettsburg, KY (41129)

5:25 PM EDT en Octubre 31, 2014 (GMT -0400)
Boy Scout from Ashland | Change Station
CLOSE
Current Station
Estación meteorológica personal
Location: Ashland, KY
Altura: 689 ft
Estaciones meteorológicas cercanas

Alt 689 ft 38.44 °N, 82.65 °W | Updated 43 seconds ago

Lluvia
Lluvia
45.9 ° F
Sensación térmica 46 ° F
N
0.0
Viento Variable Viento desde SO
Gusts 0.0 mph

Hoy
Alta -- | Baja -- ° F
--% Posibilidad de precipitaciones
Ayer
Alta -- | Baja -- ° F
Precip. -- pul
7:55 AM 6:31 PM
Cuarto creciente, 59% visible
Presión 29.86 pul
Visibilidad 6.0 Millas
Nubes Nublado 3100 ft
Vientos helados 46 ° F
Punto de rocío 44 ° F
Humedad 95%
Precipitaciones 0.05 pul
Espesor de la nieve No disponible.
UV 0 de una escala de 12
Polen .10 de una escala de 12
Calidad del aire No disponible.
Flu Activity No disponible.
SPECI KHTS 312058Z 20003KT 6SM -RA BR OVC031 07/06 A2986 RMK AO2 P0000 T00670056

More Conditions Fewer Conditions

Presión 29.86 pul
Visibilidad 6.0 Millas
Nubes Nublado 3100 ft
Vientos helados 46 ° F
Punto de rocío 44 ° F
Humedad 95%
Precipitaciones 0.05 pul
Espesor de la nieve No disponible.
UV 0 de una escala de 12
Polen .10 de una escala de 12
Calidad del aire No disponible.
Flu Activity No disponible.
SPECI KHTS 312058Z 20003KT 6SM -RA BR OVC031 07/06 A2986 RMK AO2 P0000 T00670056

More Conditions Fewer Conditions

10-Day Weather Forecast

Almanac

Astronomía

Oct. 31, 2014 Salida Puesta
Hora real
Crepúsculo civil
Crepúsculo náutico
Crepúsculo astronómico
Luna
Horas de luz
Horas de luz
Tomorrow will be .
, % of the Moon is Illuminated

Extremos de hoy

Máximos del estado Bajos del estado

Community

WunderPhotos

Upload Photos

1,766,734 ¡fotos cargadas!

WunderBlogs® & News

Nearby

Calidad del aire

  Calidad del aire Índice AQ Contaminante
Not available.

Grosos de nieve

Estación Profundido Altura

Actividad de terremotos

Ciudad Distance Mag. Tiempo y dato
Magnitud mínima muestra es 2,5.

Temperaturas de aguas costeras

Lugar Temperatura

Estaciones meteorológicas cercanas